sensor_id;sensor_type;location;lat;lon;timestamp;temperature;humidity
19060;DHT22;9663;48.996;8.334;2024-01-30T00:01:17;6.70;58.00
19060;DHT22;9663;48.996;8.334;2024-01-30T00:03:42;6.70;58.00
19060;DHT22;9663;48.996;8.334;2024-01-30T00:06:08;6.70;58.10
19060;DHT22;9663;48.996;8.334;2024-01-30T00:08:34;6.70;58.10
19060;DHT22;9663;48.996;8.334;2024-01-30T00:11:00;6.70;58.10
19060;DHT22;9663;48.996;8.334;2024-01-30T00:13:26;6.70;58.10
19060;DHT22;9663;48.996;8.334;2024-01-30T00:15:52;6.70;58.10
19060;DHT22;9663;48.996;8.334;2024-01-30T00:18:18;6.70;58.10
19060;DHT22;9663;48.996;8.334;2024-01-30T00:20:44;6.70;58.10
19060;DHT22;9663;48.996;8.334;2024-01-30T00:23:10;6.70;58.00
19060;DHT22;9663;48.996;8.334;2024-01-30T00:25:35;6.70;58.10
19060;DHT22;9663;48.996;8.334;2024-01-30T00:28:01;6.70;58.10
19060;DHT22;9663;48.996;8.334;2024-01-30T00:30:27;6.60;58.00
19060;DHT22;9663;48.996;8.334;2024-01-30T00:32:53;6.60;58.00
19060;DHT22;9663;48.996;8.334;2024-01-30T00:35:19;6.60;58.00
19060;DHT22;9663;48.996;8.334;2024-01-30T00:37:45;6.60;58.10
19060;DHT22;9663;48.996;8.334;2024-01-30T00:40:11;6.60;58.10
19060;DHT22;9663;48.996;8.334;2024-01-30T00:42:41;6.50;58.10
19060;DHT22;9663;48.996;8.334;2024-01-30T00:45:15;6.50;58.10
19060;DHT22;9663;48.996;8.334;2024-01-30T00:47:41;6.50;58.10
19060;DHT22;9663;48.996;8.334;2024-01-30T00:50:08;6.50;58.10
19060;DHT22;9663;48.996;8.334;2024-01-30T00:52:34;6.50;58.20
19060;DHT22;9663;48.996;8.334;2024-01-30T00:55:01;6.40;58.20
19060;DHT22;9663;48.996;8.334;2024-01-30T00:57:26;6.50;58.20
19060;DHT22;9663;48.996;8.334;2024-01-30T00:59:52;6.50;58.30
19060;DHT22;9663;48.996;8.334;2024-01-30T01:02:18;6.50;58.40
19060;DHT22;9663;48.996;8.334;2024-01-30T01:04:44;6.50;58.50
19060;DHT22;9663;48.996;8.334;2024-01-30T01:07:10;6.50;58.60
19060;DHT22;9663;48.996;8.334;2024-01-30T01:09:36;6.50;58.70
19060;DHT22;9663;48.996;8.334;2024-01-30T01:12:03;6.50;58.60
19060;DHT22;9663;48.996;8.334;2024-01-30T01:14:29;6.60;58.60
19060;DHT22;9663;48.996;8.334;2024-01-30T01:16:55;6.60;58.60
19060;DHT22;9663;48.996;8.334;2024-01-30T01:19:21;6.60;58.60
19060;DHT22;9663;48.996;8.334;2024-01-30T01:21:47;6.60;58.50
19060;DHT22;9663;48.996;8.334;2024-01-30T01:24:13;6.60;58.50
19060;DHT22;9663;48.996;8.334;2024-01-30T01:26:39;6.60;58.50
19060;DHT22;9663;48.996;8.334;2024-01-30T01:29:06;6.60;58.50
19060;DHT22;9663;48.996;8.334;2024-01-30T01:31:41;6.60;58.50
19060;DHT22;9663;48.996;8.334;2024-01-30T01:34:10;6.60;58.50
19060;DHT22;9663;48.996;8.334;2024-01-30T01:36:36;6.60;58.50
19060;DHT22;9663;48.996;8.334;2024-01-30T01:39:02;6.60;58.60
19060;DHT22;9663;48.996;8.334;2024-01-30T01:41:34;6.60;58.50
19060;DHT22;9663;48.996;8.334;2024-01-30T01:44:00;6.60;58.60
19060;DHT22;9663;48.996;8.334;2024-01-30T01:46:27;6.60;58.50
19060;DHT22;9663;48.996;8.334;2024-01-30T01:48:56;6.50;58.40
19060;DHT22;9663;48.996;8.334;2024-01-30T01:51:23;6.50;58.40
19060;DHT22;9663;48.996;8.334;2024-01-30T01:53:56;6.50;58.40
19060;DHT22;9663;48.996;8.334;2024-01-30T01:56:24;6.50;58.50
19060;DHT22;9663;48.996;8.334;2024-01-30T01:58:50;6.50;58.50
19060;DHT22;9663;48.996;8.334;2024-01-30T02:01:20;6.40;58.40
19060;DHT22;9663;48.996;8.334;2024-01-30T02:03:46;6.40;58.40
19060;DHT22;9663;48.996;8.334;2024-01-30T02:06:13;6.40;58.50
19060;DHT22;9663;48.996;8.334;2024-01-30T02:08:40;6.40;58.50
19060;DHT22;9663;48.996;8.334;2024-01-30T02:11:07;6.30;59.10
19060;DHT22;9663;48.996;8.334;2024-01-30T02:13:33;6.30;58.50
19060;DHT22;9663;48.996;8.334;2024-01-30T02:15:58;6.20;58.40
19060;DHT22;9663;48.996;8.334;2024-01-30T02:18:24;6.20;58.50
19060;DHT22;9663;48.996;8.334;2024-01-30T02:20:53;6.20;58.50
19060;DHT22;9663;48.996;8.334;2024-01-30T02:33:33;6.10;58.70
19060;DHT22;9663;48.996;8.334;2024-01-30T02:35:59;6.00;58.60
19060;DHT22;9663;48.996;8.334;2024-01-30T02:38:25;6.00;58.70
19060;DHT22;9663;48.996;8.334;2024-01-30T02:40:52;6.00;58.70
19060;DHT22;9663;48.996;8.334;2024-01-30T02:43:18;6.00;58.70
19060;DHT22;9663;48.996;8.334;2024-01-30T02:45:43;5.90;58.60
19060;DHT22;9663;48.996;8.334;2024-01-30T02:48:09;5.90;58.60
19060;DHT22;9663;48.996;8.334;2024-01-30T02:50:35;5.90;58.60
19060;DHT22;9663;48.996;8.334;2024-01-30T02:53:00;5.90;59.30
19060;DHT22;9663;48.996;8.334;2024-01-30T02:55:26;5.80;58.60
19060;DHT22;9663;48.996;8.334;2024-01-30T02:57:52;5.80;58.70
19060;DHT22;9663;48.996;8.334;2024-01-30T03:00:19;5.80;58.70
19060;DHT22;9663;48.996;8.334;2024-01-30T03:02:45;5.80;58.80
19060;DHT22;9663;48.996;8.334;2024-01-30T03:05:11;5.70;58.80
19060;DHT22;9663;48.996;8.334;2024-01-30T03:07:37;5.70;58.90
19060;DHT22;9663;48.996;8.334;2024-01-30T03:10:04;5.80;59.00
19060;DHT22;9663;48.996;8.334;2024-01-30T03:12:31;5.80;59.10
19060;DHT22;9663;48.996;8.334;2024-01-30T03:14:57;5.80;59.20
19060;DHT22;9663;48.996;8.334;2024-01-30T03:17:23;5.80;59.20
19060;DHT22;9663;48.996;8.334;2024-01-30T03:19:49;5.80;59.20
19060;DHT22;9663;48.996;8.334;2024-01-30T03:22:15;5.80;59.20
19060;DHT22;9663;48.996;8.334;2024-01-30T03:24:41;5.80;59.20
19060;DHT22;9663;48.996;8.334;2024-01-30T03:27:07;5.80;59.20
19060;DHT22;9663;48.996;8.334;2024-01-30T03:29:33;5.90;59.20
19060;DHT22;9663;48.996;8.334;2024-01-30T03:31:59;5.90;59.20
19060;DHT22;9663;48.996;8.334;2024-01-30T03:34:24;5.90;59.20
19060;DHT22;9663;48.996;8.334;2024-01-30T03:36:50;5.90;59.20
19060;DHT22;9663;48.996;8.334;2024-01-30T03:39:15;5.90;59.20
19060;DHT22;9663;48.996;8.334;2024-01-30T03:41:42;5.90;59.10
19060;DHT22;9663;48.996;8.334;2024-01-30T03:44:09;5.90;59.00
19060;DHT22;9663;48.996;8.334;2024-01-30T03:46:36;5.80;58.90
19060;DHT22;9663;48.996;8.334;2024-01-30T03:49:01;5.80;58.90
19060;DHT22;9663;48.996;8.334;2024-01-30T03:51:27;5.80;59.00
19060;DHT22;9663;48.996;8.334;2024-01-30T03:53:52;5.80;59.00
19060;DHT22;9663;48.996;8.334;2024-01-30T03:58:51;5.70;59.10
19060;DHT22;9663;48.996;8.334;2024-01-30T04:03:52;5.70;59.10
19060;DHT22;9663;48.996;8.334;2024-01-30T04:14:03;5.70;59.20
19060;DHT22;9663;48.996;8.334;2024-01-30T04:19:04;5.70;59.40
19060;DHT22;9663;48.996;8.334;2024-01-30T04:21:30;5.80;59.50
19060;DHT22;9663;48.996;8.334;2024-01-30T04:26:31;5.80;59.60
19060;DHT22;9663;48.996;8.334;2024-01-30T04:31:32;5.90;59.50
19060;DHT22;9663;48.996;8.334;2024-01-30T04:36:33;5.90;59.40
19060;DHT22;9663;48.996;8.334;2024-01-30T04:38:59;5.90;59.30
19060;DHT22;9663;48.996;8.334;2024-01-30T04:41:24;5.90;59.20
19060;DHT22;9663;48.996;8.334;2024-01-30T04:43:51;5.80;59.20
19060;DHT22;9663;48.996;8.334;2024-01-30T04:46:17;5.80;59.20
19060;DHT22;9663;48.996;8.334;2024-01-30T04:51:18;5.80;59.30
19060;DHT22;9663;48.996;8.334;2024-01-30T04:53:43;5.80;59.40
19060;DHT22;9663;48.996;8.334;2024-01-30T04:56:09;5.80;59.40
19060;DHT22;9663;48.996;8.334;2024-01-30T04:58:36;5.80;59.50
19060;DHT22;9663;48.996;8.334;2024-01-30T05:03:33;5.80;59.60
19060;DHT22;9663;48.996;8.334;2024-01-30T05:05:59;5.80;59.60
19060;DHT22;9663;48.996;8.334;2024-01-30T05:08:25;5.90;59.60
19060;DHT22;9663;48.996;8.334;2024-01-30T05:10:51;5.90;59.60
19060;DHT22;9663;48.996;8.334;2024-01-30T05:13:16;5.90;59.70
19060;DHT22;9663;48.996;8.334;2024-01-30T05:15:42;5.90;59.60
19060;DHT22;9663;48.996;8.334;2024-01-30T05:18:08;5.90;59.50
19060;DHT22;9663;48.996;8.334;2024-01-30T05:20:34;5.90;59.40
19060;DHT22;9663;48.996;8.334;2024-01-30T05:23:00;5.90;59.40
19060;DHT22;9663;48.996;8.334;2024-01-30T05:25:25;5.90;59.30
19060;DHT22;9663;48.996;8.334;2024-01-30T05:27:51;5.80;59.30
19060;DHT22;9663;48.996;8.334;2024-01-30T05:30:17;5.70;59.20
19060;DHT22;9663;48.996;8.334;2024-01-30T05:32:43;5.70;59.30
19060;DHT22;9663;48.996;8.334;2024-01-30T05:35:09;5.70;59.30
19060;DHT22;9663;48.996;8.334;2024-01-30T05:37:34;5.60;59.30
19060;DHT22;9663;48.996;8.334;2024-01-30T05:40:00;5.60;59.40
19060;DHT22;9663;48.996;8.334;2024-01-30T05:42:26;5.60;59.50
19060;DHT22;9663;48.996;8.334;2024-01-30T05:44:52;5.60;59.60
19060;DHT22;9663;48.996;8.334;2024-01-30T05:47:17;5.50;59.60
19060;DHT22;9663;48.996;8.334;2024-01-30T05:49:43;5.50;59.60
19060;DHT22;9663;48.996;8.334;2024-01-30T05:52:09;5.50;59.60
19060;DHT22;9663;48.996;8.334;2024-01-30T05:54:35;5.50;59.70
19060;DHT22;9663;48.996;8.334;2024-01-30T05:57:00;5.50;59.70
19060;DHT22;9663;48.996;8.334;2024-01-30T05:59:26;5.60;59.90
19060;DHT22;9663;48.996;8.334;2024-01-30T06:01:52;5.60;59.90
19060;DHT22;9663;48.996;8.334;2024-01-30T06:04:18;5.60;59.90
19060;DHT22;9663;48.996;8.334;2024-01-30T06:06:43;5.60;59.90
19060;DHT22;9663;48.996;8.334;2024-01-30T06:09:09;5.60;59.90
19060;DHT22;9663;48.996;8.334;2024-01-30T06:11:35;5.60;59.90
19060;DHT22;9663;48.996;8.334;2024-01-30T06:14:01;5.60;59.90
19060;DHT22;9663;48.996;8.334;2024-01-30T07:27:20;5.50;60.20
19060;DHT22;9663;48.996;8.334;2024-01-30T07:29:46;5.60;60.40
19060;DHT22;9663;48.996;8.334;2024-01-30T07:32:12;5.60;60.50
19060;DHT22;9663;48.996;8.334;2024-01-30T07:34:38;5.70;60.50
19060;DHT22;9663;48.996;8.334;2024-01-30T07:37:04;5.70;60.50
19060;DHT22;9663;48.996;8.334;2024-01-30T07:39:29;5.80;60.50
19060;DHT22;9663;48.996;8.334;2024-01-30T07:41:55;5.90;60.60
19060;DHT22;9663;48.996;8.334;2024-01-30T07:44:21;5.90;60.50
19060;DHT22;9663;48.996;8.334;2024-01-30T07:46:47;6.00;60.60
19060;DHT22;9663;48.996;8.334;2024-01-30T07:49:13;6.10;60.60
19060;DHT22;9663;48.996;8.334;2024-01-30T07:51:39;6.20;60.60
19060;DHT22;9663;48.996;8.334;2024-01-30T07:54:11;6.20;60.50
19060;DHT22;9663;48.996;8.334;2024-01-30T07:56:37;6.30;60.70
19060;DHT22;9663;48.996;8.334;2024-01-30T07:59:03;6.40;60.60
19060;DHT22;9663;48.996;8.334;2024-01-30T08:01:29;6.50;60.50
19060;DHT22;9663;48.996;8.334;2024-01-30T08:03:54;6.60;60.50
19060;DHT22;9663;48.996;8.334;2024-01-30T08:06:20;6.70;60.50
19060;DHT22;9663;48.996;8.334;2024-01-30T08:08:46;6.70;60.30
19060;DHT22;9663;48.996;8.334;2024-01-30T08:11:12;6.80;60.30
19060;DHT22;9663;48.996;8.334;2024-01-30T08:13:38;6.90;60.50
19060;DHT22;9663;48.996;8.334;2024-01-30T08:16:03;7.00;60.40
19060;DHT22;9663;48.996;8.334;2024-01-30T08:18:30;7.10;60.40
19060;DHT22;9663;48.996;8.334;2024-01-30T08:20:55;7.20;60.40
19060;DHT22;9663;48.996;8.334;2024-01-30T08:23:21;7.30;61.20
19060;DHT22;9663;48.996;8.334;2024-01-30T08:25:47;7.40;60.30
19060;DHT22;9663;48.996;8.334;2024-01-30T08:28:12;7.50;60.20
19060;DHT22;9663;48.996;8.334;2024-01-30T08:30:38;7.60;60.20
19060;DHT22;9663;48.996;8.334;2024-01-30T08:33:05;7.80;60.30
19060;DHT22;9663;48.996;8.334;2024-01-30T08:35:30;7.90;60.20
19060;DHT22;9663;48.996;8.334;2024-01-30T08:37:58;8.00;60.10
19060;DHT22;9663;48.996;8.334;2024-01-30T08:40:24;8.10;60.00
19060;DHT22;9663;48.996;8.334;2024-01-30T08:42:50;8.20;60.00
19060;DHT22;9663;48.996;8.334;2024-01-30T08:45:16;8.20;59.90
19060;DHT22;9663;48.996;8.334;2024-01-30T08:47:41;8.30;59.90
19060;DHT22;9663;48.996;8.334;2024-01-30T08:50:07;8.40;59.90
19060;DHT22;9663;48.996;8.334;2024-01-30T08:52:33;8.50;59.90
19060;DHT22;9663;48.996;8.334;2024-01-30T08:54:59;8.50;59.70
19060;DHT22;9663;48.996;8.334;2024-01-30T08:57:25;8.60;59.70
19060;DHT22;9663;48.996;8.334;2024-01-30T08:59:54;8.60;59.70
19060;DHT22;9663;48.996;8.334;2024-01-30T09:02:20;8.70;59.60
19060;DHT22;9663;48.996;8.334;2024-01-30T09:04:46;8.80;59.60
19060;DHT22;9663;48.996;8.334;2024-01-30T09:07:12;8.80;59.60
19060;DHT22;9663;48.996;8.334;2024-01-30T09:09:39;8.90;59.60
19060;DHT22;9663;48.996;8.334;2024-01-30T09:12:08;8.90;59.60
19060;DHT22;9663;48.996;8.334;2024-01-30T09:14:37;9.00;59.60
19060;DHT22;9663;48.996;8.334;2024-01-30T09:17:04;9.10;59.70
19060;DHT22;9663;48.996;8.334;2024-01-30T09:19:30;9.20;59.70
19060;DHT22;9663;48.996;8.334;2024-01-30T09:21:56;9.30;60.20
19060;DHT22;9663;48.996;8.334;2024-01-30T09:24:22;9.40;59.50
19060;DHT22;9663;48.996;8.334;2024-01-30T09:26:48;9.50;59.50
19060;DHT22;9663;48.996;8.334;2024-01-30T09:29:13;9.50;59.40
19060;DHT22;9663;48.996;8.334;2024-01-30T09:31:39;9.60;59.40
19060;DHT22;9663;48.996;8.334;2024-01-30T09:34:04;9.70;59.40
19060;DHT22;9663;48.996;8.334;2024-01-30T09:36:31;9.80;59.40
19060;DHT22;9663;48.996;8.334;2024-01-30T09:38:57;9.90;59.30
19060;DHT22;9663;48.996;8.334;2024-01-30T09:41:24;10.00;59.30
19060;DHT22;9663;48.996;8.334;2024-01-30T09:43:50;10.10;59.20
19060;DHT22;9663;48.996;8.334;2024-01-30T09:46:17;10.20;59.30
19060;DHT22;9663;48.996;8.334;2024-01-30T09:48:46;10.30;59.20
19060;DHT22;9663;48.996;8.334;2024-01-30T09:51:14;10.40;59.20
19060;DHT22;9663;48.996;8.334;2024-01-30T09:53:42;10.50;59.20
19060;DHT22;9663;48.996;8.334;2024-01-30T09:56:09;10.90;59.90
19060;DHT22;9663;48.996;8.334;2024-01-30T09:58:36;11.00;59.40
19060;DHT22;9663;48.996;8.334;2024-01-30T10:01:02;11.10;58.90
19060;DHT22;9663;48.996;8.334;2024-01-30T10:03:28;11.20;58.60
19060;DHT22;9663;48.996;8.334;2024-01-30T10:05:55;11.20;58.50
19060;DHT22;9663;48.996;8.334;2024-01-30T10:08:21;11.40;58.40
19060;DHT22;9663;48.996;8.334;2024-01-30T10:10:47;11.60;58.90
19060;DHT22;9663;48.996;8.334;2024-01-30T10:13:15;11.70;58.70
19060;DHT22;9663;48.996;8.334;2024-01-30T10:15:42;11.80;58.30
19060;DHT22;9663;48.996;8.334;2024-01-30T10:18:10;11.90;58.00
19060;DHT22;9663;48.996;8.334;2024-01-30T10:20:37;11.90;57.60
19060;DHT22;9663;48.996;8.334;2024-01-30T10:23:03;11.90;57.60
19060;DHT22;9663;48.996;8.334;2024-01-30T10:25:33;12.00;57.50
19060;DHT22;9663;48.996;8.334;2024-01-30T10:27:59;12.00;57.40
19060;DHT22;9663;48.996;8.334;2024-01-30T10:30:24;12.10;57.70
19060;DHT22;9663;48.996;8.334;2024-01-30T10:32:50;12.30;57.50
19060;DHT22;9663;48.996;8.334;2024-01-30T10:35:17;12.40;57.50
19060;DHT22;9663;48.996;8.334;2024-01-30T10:37:47;12.40;57.10
19060;DHT22;9663;48.996;8.334;2024-01-30T10:40:14;12.40;56.90
19060;DHT22;9663;48.996;8.334;2024-01-30T10:42:44;12.40;56.70
19060;DHT22;9663;48.996;8.334;2024-01-30T10:45:12;12.40;56.70
19060;DHT22;9663;48.996;8.334;2024-01-30T10:47:40;12.40;56.60
19060;DHT22;9663;48.996;8.334;2024-01-30T10:50:09;12.40;56.80
19060;DHT22;9663;48.996;8.334;2024-01-30T10:52:36;12.40;56.80
19060;DHT22;9663;48.996;8.334;2024-01-30T10:55:04;12.50;56.80
19060;DHT22;9663;48.996;8.334;2024-01-30T10:57:37;12.50;56.70
19060;DHT22;9663;48.996;8.334;2024-01-30T11:00:15;12.60;56.70
19060;DHT22;9663;48.996;8.334;2024-01-30T11:02:45;12.60;56.50
19060;DHT22;9663;48.996;8.334;2024-01-30T11:05:12;12.60;56.50
19060;DHT22;9663;48.996;8.334;2024-01-30T11:07:40;12.60;56.50
19060;DHT22;9663;48.996;8.334;2024-01-30T11:10:09;12.60;56.60
19060;DHT22;9663;48.996;8.334;2024-01-30T11:12:40;12.70;56.90
19060;DHT22;9663;48.996;8.334;2024-01-30T11:15:07;12.80;56.80
19060;DHT22;9663;48.996;8.334;2024-01-30T11:17:44;12.90;56.80
19060;DHT22;9663;48.996;8.334;2024-01-30T11:22:56;13.20;56.40
19060;DHT22;9663;48.996;8.334;2024-01-30T11:25:23;13.20;56.40
19060;DHT22;9663;48.996;8.334;2024-01-30T11:27:51;13.40;56.40
19060;DHT22;9663;48.996;8.334;2024-01-30T11:33:09;13.50;56.10
19060;DHT22;9663;48.996;8.334;2024-01-30T11:35:44;13.60;55.80
19060;DHT22;9663;48.996;8.334;2024-01-30T11:38:13;13.70;56.10
19060;DHT22;9663;48.996;8.334;2024-01-30T11:40:40;14.10;56.20
19060;DHT22;9663;48.996;8.334;2024-01-30T11:43:07;14.30;55.90
19060;DHT22;9663;48.996;8.334;2024-01-30T11:45:35;14.60;55.80
19060;DHT22;9663;48.996;8.334;2024-01-30T11:48:02;14.90;56.00
19060;DHT22;9663;48.996;8.334;2024-01-30T11:50:30;15.60;56.00
19060;DHT22;9663;48.996;8.334;2024-01-30T11:52:56;16.00;55.20
19060;DHT22;9663;48.996;8.334;2024-01-30T11:55:23;16.50;54.80
19060;DHT22;9663;48.996;8.334;2024-01-30T11:57:49;16.90;54.40
19060;DHT22;9663;48.996;8.334;2024-01-30T12:00:16;17.20;53.90
19060;DHT22;9663;48.996;8.334;2024-01-30T12:02:44;17.50;53.70
19060;DHT22;9663;48.996;8.334;2024-01-30T12:05:14;17.90;53.50
19060;DHT22;9663;48.996;8.334;2024-01-30T12:07:44;18.30;53.30
19060;DHT22;9663;48.996;8.334;2024-01-30T12:10:12;18.50;52.80
19060;DHT22;9663;48.996;8.334;2024-01-30T12:12:40;18.60;51.90
19060;DHT22;9663;48.996;8.334;2024-01-30T12:15:08;18.60;51.40
19060;DHT22;9663;48.996;8.334;2024-01-30T12:17:34;18.50;51.10
19060;DHT22;9663;48.996;8.334;2024-01-30T12:20:13;18.40;50.00
19060;DHT22;9663;48.996;8.334;2024-01-30T12:22:45;18.30;50.30
19060;DHT22;9663;48.996;8.334;2024-01-30T12:25:14;18.20;50.70
19060;DHT22;9663;48.996;8.334;2024-01-30T12:27:46;18.00;50.80
19060;DHT22;9663;48.996;8.334;2024-01-30T12:30:18;17.80;50.50
19060;DHT22;9663;48.996;8.334;2024-01-30T12:32:46;17.90;50.20
19060;DHT22;9663;48.996;8.334;2024-01-30T12:35:19;17.80;51.00
19060;DHT22;9663;48.996;8.334;2024-01-30T12:37:46;17.80;50.60
19060;DHT22;9663;48.996;8.334;2024-01-30T12:40:14;17.80;50.90
19060;DHT22;9663;48.996;8.334;2024-01-30T12:42:41;17.80;50.70
19060;DHT22;9663;48.996;8.334;2024-01-30T12:45:08;17.70;50.40
19060;DHT22;9663;48.996;8.334;2024-01-30T12:47:34;17.70;50.70
19060;DHT22;9663;48.996;8.334;2024-01-30T12:50:00;17.60;50.40
19060;DHT22;9663;48.996;8.334;2024-01-30T12:52:26;17.50;50.20
19060;DHT22;9663;48.996;8.334;2024-01-30T12:54:52;17.30;50.40
19060;DHT22;9663;48.996;8.334;2024-01-30T12:57:18;17.20;50.60
19060;DHT22;9663;48.996;8.334;2024-01-30T12:59:44;17.10;50.70
19060;DHT22;9663;48.996;8.334;2024-01-30T13:02:11;17.00;50.80
19060;DHT22;9663;48.996;8.334;2024-01-30T13:04:38;16.90;50.90
19060;DHT22;9663;48.996;8.334;2024-01-30T13:07:04;16.80;50.90
19060;DHT22;9663;48.996;8.334;2024-01-30T13:09:30;16.60;50.80
19060;DHT22;9663;48.996;8.334;2024-01-30T13:11:59;16.50;50.90
19060;DHT22;9663;48.996;8.334;2024-01-30T13:14:25;16.40;51.10
19060;DHT22;9663;48.996;8.334;2024-01-30T13:16:51;16.30;51.30
19060;DHT22;9663;48.996;8.334;2024-01-30T13:19:17;16.30;51.50
19060;DHT22;9663;48.996;8.334;2024-01-30T13:21:43;16.20;51.60
19060;DHT22;9663;48.996;8.334;2024-01-30T13:24:09;16.20;51.50
19060;DHT22;9663;48.996;8.334;2024-01-30T13:26:35;16.10;51.40
19060;DHT22;9663;48.996;8.334;2024-01-30T13:29:01;16.10;51.40
19060;DHT22;9663;48.996;8.334;2024-01-30T13:31:27;16.10;51.50
19060;DHT22;9663;48.996;8.334;2024-01-30T13:33:53;16.00;51.60
19060;DHT22;9663;48.996;8.334;2024-01-30T13:36:20;16.00;51.80
19060;DHT22;9663;48.996;8.334;2024-01-30T13:38:47;16.00;51.80
19060;DHT22;9663;48.996;8.334;2024-01-30T13:41:13;15.90;51.80
19060;DHT22;9663;48.996;8.334;2024-01-30T13:43:38;15.90;51.90
19060;DHT22;9663;48.996;8.334;2024-01-30T13:46:04;15.90;52.00
19060;DHT22;9663;48.996;8.334;2024-01-30T13:48:31;15.90;52.10
19060;DHT22;9663;48.996;8.334;2024-01-30T13:50:57;15.90;52.10
19060;DHT22;9663;48.996;8.334;2024-01-30T13:53:23;15.80;52.10
19060;DHT22;9663;48.996;8.334;2024-01-30T13:55:49;15.90;52.10
19060;DHT22;9663;48.996;8.334;2024-01-30T13:58:14;15.90;52.10
19060;DHT22;9663;48.996;8.334;2024-01-30T14:00:40;15.80;52.00
19060;DHT22;9663;48.996;8.334;2024-01-30T14:03:06;15.80;52.00
19060;DHT22;9663;48.996;8.334;2024-01-30T14:05:32;15.80;52.00
19060;DHT22;9663;48.996;8.334;2024-01-30T14:07:58;15.80;52.10
19060;DHT22;9663;48.996;8.334;2024-01-30T14:10:25;15.80;52.20
19060;DHT22;9663;48.996;8.334;2024-01-30T14:12:51;15.80;52.20
19060;DHT22;9663;48.996;8.334;2024-01-30T14:15:17;15.80;52.20
19060;DHT22;9663;48.996;8.334;2024-01-30T14:17:46;15.80;52.30
19060;DHT22;9663;48.996;8.334;2024-01-30T14:20:14;15.80;52.30
19060;DHT22;9663;48.996;8.334;2024-01-30T14:22:42;15.80;52.30
19060;DHT22;9663;48.996;8.334;2024-01-30T14:25:08;15.80;52.30
19060;DHT22;9663;48.996;8.334;2024-01-30T14:27:35;15.80;52.30
19060;DHT22;9663;48.996;8.334;2024-01-30T14:30:01;15.80;52.20
19060;DHT22;9663;48.996;8.334;2024-01-30T14:32:28;15.80;52.20
19060;DHT22;9663;48.996;8.334;2024-01-30T14:34:54;15.80;52.20
19060;DHT22;9663;48.996;8.334;2024-01-30T14:37:21;15.80;52.20
19060;DHT22;9663;48.996;8.334;2024-01-30T14:39:47;15.80;52.30
19060;DHT22;9663;48.996;8.334;2024-01-30T14:42:14;15.80;52.40
19060;DHT22;9663;48.996;8.334;2024-01-30T14:44:40;15.70;52.30
19060;DHT22;9663;48.996;8.334;2024-01-30T14:47:06;15.70;52.30
19060;DHT22;9663;48.996;8.334;2024-01-30T14:49:32;15.70;52.30
19060;DHT22;9663;48.996;8.334;2024-01-30T14:51:58;15.70;52.40
19060;DHT22;9663;48.996;8.334;2024-01-30T14:54:27;15.60;52.30
19060;DHT22;9663;48.996;8.334;2024-01-30T14:56:53;15.60;52.40
19060;DHT22;9663;48.996;8.334;2024-01-30T14:59:19;15.80;52.80
19060;DHT22;9663;48.996;8.334;2024-01-30T15:01:45;15.80;52.80
19060;DHT22;9663;48.996;8.334;2024-01-30T15:04:10;15.90;52.70
19060;DHT22;9663;48.996;8.334;2024-01-30T15:06:37;15.90;52.50
19060;DHT22;9663;48.996;8.334;2024-01-30T15:09:03;15.90;52.30
19060;DHT22;9663;48.996;8.334;2024-01-30T15:11:29;15.90;52.10
19060;DHT22;9663;48.996;8.334;2024-01-30T15:13:56;15.80;52.10
19060;DHT22;9663;48.996;8.334;2024-01-30T15:16:21;15.70;52.00
19060;DHT22;9663;48.996;8.334;2024-01-30T15:18:47;15.70;52.00
19060;DHT22;9663;48.996;8.334;2024-01-30T15:21:13;15.60;52.10
19060;DHT22;9663;48.996;8.334;2024-01-30T15:23:38;15.60;52.20
19060;DHT22;9663;48.996;8.334;2024-01-30T15:26:04;15.50;52.20
19060;DHT22;9663;48.996;8.334;2024-01-30T15:28:37;15.40;52.30
19060;DHT22;9663;48.996;8.334;2024-01-30T15:31:05;15.40;52.40
19060;DHT22;9663;48.996;8.334;2024-01-30T15:33:31;15.30;52.50
19060;DHT22;9663;48.996;8.334;2024-01-30T15:36:01;15.30;52.50
19060;DHT22;9663;48.996;8.334;2024-01-30T15:38:28;15.20;52.60
19060;DHT22;9663;48.996;8.334;2024-01-30T15:40:54;15.20;52.70
19060;DHT22;9663;48.996;8.334;2024-01-30T15:43:21;15.10;52.70
19060;DHT22;9663;48.996;8.334;2024-01-30T15:45:48;15.10;52.80
19060;DHT22;9663;48.996;8.334;2024-01-30T15:48:14;15.00;52.90
19060;DHT22;9663;48.996;8.334;2024-01-30T15:50:39;15.00;52.90
19060;DHT22;9663;48.996;8.334;2024-01-30T15:53:05;15.00;52.90
19060;DHT22;9663;48.996;8.334;2024-01-30T15:55:31;14.90;52.90
19060;DHT22;9663;48.996;8.334;2024-01-30T15:57:57;14.90;53.00
19060;DHT22;9663;48.996;8.334;2024-01-30T16:00:22;14.90;53.10
19060;DHT22;9663;48.996;8.334;2024-01-30T16:02:48;15.00;54.60
19060;DHT22;9663;48.996;8.334;2024-01-30T16:05:14;15.00;53.60
19060;DHT22;9663;48.996;8.334;2024-01-30T16:07:40;14.90;53.20
19060;DHT22;9663;48.996;8.334;2024-01-30T16:10:06;14.90;53.10
19060;DHT22;9663;48.996;8.334;2024-01-30T16:12:33;14.80;53.00
19060;DHT22;9663;48.996;8.334;2024-01-30T16:14:59;14.80;53.00
19060;DHT22;9663;48.996;8.334;2024-01-30T16:17:25;14.70;53.10
19060;DHT22;9663;48.996;8.334;2024-01-30T16:19:51;14.70;53.20
19060;DHT22;9663;48.996;8.334;2024-01-30T16:22:17;14.50;53.20
19060;DHT22;9663;48.996;8.334;2024-01-30T16:24:44;14.50;53.20
19060;DHT22;9663;48.996;8.334;2024-01-30T16:27:09;14.50;53.30
19060;DHT22;9663;48.996;8.334;2024-01-30T16:29:35;14.40;53.40
19060;DHT22;9663;48.996;8.334;2024-01-30T16:32:01;14.40;53.50
19060;DHT22;9663;48.996;8.334;2024-01-30T16:34:27;14.30;53.50
19060;DHT22;9663;48.996;8.334;2024-01-30T16:36:53;14.30;53.60
19060;DHT22;9663;48.996;8.334;2024-01-30T16:39:19;14.30;53.60
19060;DHT22;9663;48.996;8.334;2024-01-30T16:41:45;14.20;53.70
19060;DHT22;9663;48.996;8.334;2024-01-30T16:44:10;14.20;53.70
19060;DHT22;9663;48.996;8.334;2024-01-30T16:46:36;14.20;53.70
19060;DHT22;9663;48.996;8.334;2024-01-30T16:49:03;14.20;53.80
19060;DHT22;9663;48.996;8.334;2024-01-30T16:51:29;14.10;53.70
19060;DHT22;9663;48.996;8.334;2024-01-30T16:53:54;14.10;53.80
19060;DHT22;9663;48.996;8.334;2024-01-30T16:56:20;14.10;53.90
19060;DHT22;9663;48.996;8.334;2024-01-30T16:58:46;14.10;54.60
19060;DHT22;9663;48.996;8.334;2024-01-30T17:01:12;14.10;54.00
19060;DHT22;9663;48.996;8.334;2024-01-30T17:03:37;14.10;54.00
19060;DHT22;9663;48.996;8.334;2024-01-30T17:06:10;14.10;54.10
19060;DHT22;9663;48.996;8.334;2024-01-30T17:08:38;14.10;54.10
19060;DHT22;9663;48.996;8.334;2024-01-30T17:11:04;14.10;54.10
19060;DHT22;9663;48.996;8.334;2024-01-30T17:13:30;14.10;54.10
19060;DHT22;9663;48.996;8.334;2024-01-30T17:15:56;14.10;54.10
19060;DHT22;9663;48.996;8.334;2024-01-30T17:18:23;14.10;54.10
19060;DHT22;9663;48.996;8.334;2024-01-30T17:20:48;14.20;54.10
19060;DHT22;9663;48.996;8.334;2024-01-30T17:23:14;14.10;54.20
19060;DHT22;9663;48.996;8.334;2024-01-30T17:25:40;14.10;54.20
19060;DHT22;9663;48.996;8.334;2024-01-30T17:28:06;14.20;54.30
19060;DHT22;9663;48.996;8.334;2024-01-30T17:30:31;14.20;54.30
19060;DHT22;9663;48.996;8.334;2024-01-30T17:32:57;14.10;54.40
19060;DHT22;9663;48.996;8.334;2024-01-30T17:35:25;14.30;55.60
19060;DHT22;9663;48.996;8.334;2024-01-30T17:37:50;14.30;55.00
19060;DHT22;9663;48.996;8.334;2024-01-30T17:40:16;14.40;54.70
19060;DHT22;9663;48.996;8.334;2024-01-30T17:42:42;14.30;54.40
19060;DHT22;9663;48.996;8.334;2024-01-30T17:45:08;14.30;54.30